SBI131 LOWI-LIMF
Flight info
| Callsign | SBI131 |
|---|---|
| Flight time | 0h 52m |
| Altitude | 19000 |
| Route | BRENO M726 NAXAV M984 ATPED Y740 NELAB |
| Aircraft | B738/M-SDE2E3FGHIRWXY/LB1 |
Departure
| Time | 2026-05-08 14:04 |
|---|---|
| Airport | Innsbruck Airport (LOWI) |
Arrival
| Time | 2026-05-08 14:57 |
|---|---|
| Airport | Turin Airport (LIMF) |
| Time | Latitude | Longitude | Altitude | Speed | Heading |
|---|---|---|---|---|---|
| 2026-05-08 13:40 | 47.25801 | 11.34872 | 0 ft | 0 kts | 172° |
| 2026-05-08 13:55 | 47.25804 | 11.34871 | 1900 ft | 3 kts | 171° |
| 2026-05-08 13:55 | 47.25841 | 11.34868 | 1887 ft | 2 kts | 215° |
| 2026-05-08 13:56 | 47.25848 | 11.34881 | 1889 ft | 2 kts | 256° |
| 2026-05-08 13:56 | 47.25850 | 11.34897 | 1888 ft | 2 kts | 262° |
| 2026-05-08 13:56 | 47.25851 | 11.34906 | 1888 ft | 0 kts | 262° |
| 2026-05-08 13:58 | 47.25850 | 11.34893 | 1889 ft | 3 kts | 265° |
| 2026-05-08 13:58 | 47.25848 | 11.34859 | 1887 ft | 4 kts | 265° |
| 2026-05-08 13:59 | 47.25846 | 11.34813 | 1890 ft | 5 kts | 265° |
| 2026-05-08 13:59 | 47.25843 | 11.34757 | 1900 ft | 6 kts | 265° |
| 2026-05-08 13:59 | 47.25838 | 11.34694 | 1900 ft | 7 kts | 263° |
| 2026-05-08 13:59 | 47.25831 | 11.34621 | 1897 ft | 8 kts | 262° |
| 2026-05-08 14:00 | 47.25821 | 11.34525 | 1888 ft | 11 kts | 261° |
| 2026-05-08 14:00 | 47.25808 | 11.34409 | 1895 ft | 12 kts | 261° |
| 2026-05-08 14:00 | 47.25795 | 11.34286 | 1897 ft | 12 kts | 261° |
| 2026-05-08 14:00 | 47.25781 | 11.34157 | 1894 ft | 13 kts | 261° |
| 2026-05-08 14:01 | 47.25771 | 11.34021 | 1903 ft | 13 kts | 272° |
| 2026-05-08 14:01 | 47.25793 | 11.33917 | 1908 ft | 9 kts | 300° |
| 2026-05-08 14:01 | 47.25829 | 11.33840 | 1913 ft | 9 kts | 306° |
| 2026-05-08 14:01 | 47.25866 | 11.33767 | 1910 ft | 9 kts | 306° |
| 2026-05-08 14:02 | 47.25902 | 11.33694 | 1905 ft | 9 kts | 306° |
| 2026-05-08 14:02 | 47.25930 | 11.33600 | 1914 ft | 11 kts | 271° |
| 2026-05-08 14:02 | 47.25922 | 11.33479 | 1900 ft | 13 kts | 261° |
| 2026-05-08 14:02 | 47.25907 | 11.33340 | 1901 ft | 14 kts | 261° |
| 2026-05-08 14:03 | 47.25885 | 11.33234 | 1908 ft | 9 kts | 225° |
| 2026-05-08 14:03 | 47.25846 | 11.33164 | 1913 ft | 8 kts | 257° |
| 2026-05-08 14:03 | 47.25871 | 11.33137 | 1908 ft | 5 kts | 25° |
| 2026-05-08 14:03 | 47.25888 | 11.33180 | 1909 ft | 5 kts | 76° |
| 2026-05-08 14:04 | 47.25894 | 11.33223 | 1913 ft | 5 kts | 79° |
| 2026-05-08 14:04 | 47.25935 | 11.33601 | 1906 ft | 78 kts | 81° |
| 2026-05-08 14:04 | 47.26062 | 11.34760 | 1918 ft | 147 kts | 81° |
| 2026-05-08 14:04 | 47.26218 | 11.36313 | 2553 ft | 157 kts | 81° |
| 2026-05-08 14:05 | 47.26346 | 11.37932 | 3381 ft | 162 kts | 81° |
| 2026-05-08 14:05 | 47.26536 | 11.39623 | 4025 ft | 171 kts | 78° |
| 2026-05-08 14:05 | 47.26752 | 11.41399 | 4659 ft | 182 kts | 77° |
| 2026-05-08 14:05 | 47.26974 | 11.43274 | 5362 ft | 187 kts | 77° |
| 2026-05-08 14:06 | 47.27209 | 11.45137 | 6266 ft | 184 kts | 73° |
| 2026-05-08 14:06 | 47.27645 | 11.46920 | 6978 ft | 188 kts | 66° |
| 2026-05-08 14:06 | 47.28172 | 11.48704 | 7694 ft | 192 kts | 66° |
| 2026-05-08 14:06 | 47.28710 | 11.50524 | 8408 ft | 195 kts | 67° |
| 2026-05-08 14:07 | 47.29248 | 11.52375 | 9098 ft | 200 kts | 68° |
| 2026-05-08 14:07 | 47.29797 | 11.54287 | 9742 ft | 205 kts | 69° |
| 2026-05-08 14:07 | 47.30345 | 11.56205 | 10336 ft | 206 kts | 69° |
| 2026-05-08 14:07 | 47.30903 | 11.58170 | 10856 ft | 210 kts | 70° |
| 2026-05-08 14:08 | 47.31466 | 11.60159 | 11426 ft | 210 kts | 71° |
| 2026-05-08 14:08 | 47.31652 | 11.62255 | 11866 ft | 207 kts | 106° |
| 2026-05-08 14:08 | 47.30964 | 11.64043 | 12347 ft | 201 kts | 143° |
| 2026-05-08 14:08 | 47.29730 | 11.64894 | 12767 ft | 198 kts | 176° |
| 2026-05-08 14:09 | 47.28396 | 11.64586 | 13267 ft | 195 kts | 208° |
| 2026-05-08 14:09 | 47.27384 | 11.63258 | 13664 ft | 199 kts | 239° |
| 2026-05-08 14:09 | 47.26868 | 11.61380 | 14119 ft | 202 kts | 252° |
| 2026-05-08 14:09 | 47.26496 | 11.59378 | 14526 ft | 205 kts | 253° |
| 2026-05-08 14:10 | 47.26127 | 11.57291 | 14804 ft | 216 kts | 254° |
| 2026-05-08 14:10 | 47.25743 | 11.55130 | 15155 ft | 223 kts | 254° |
| 2026-05-08 14:10 | 47.25339 | 11.52886 | 15557 ft | 230 kts | 254° |
| 2026-05-08 14:10 | 47.24906 | 11.50508 | 15745 ft | 252 kts | 254° |
| 2026-05-08 14:11 | 47.24438 | 11.47967 | 16205 ft | 260 kts | 254° |
| 2026-05-08 14:11 | 47.23967 | 11.45413 | 16990 ft | 258 kts | 254° |
| 2026-05-08 14:11 | 47.23407 | 11.42889 | 17620 ft | 262 kts | 240° |
| 2026-05-08 14:11 | 47.22194 | 11.40895 | 18208 ft | 268 kts | 214° |
| 2026-05-08 14:12 | 47.20402 | 11.39866 | 18435 ft | 290 kts | 191° |
| 2026-05-08 14:12 | 47.18324 | 11.39538 | 18604 ft | 311 kts | 186° |
| 2026-05-08 14:12 | 47.16087 | 11.39347 | 18747 ft | 333 kts | 185° |
| 2026-05-08 14:12 | 47.13742 | 11.39170 | 18889 ft | 351 kts | 185° |
| 2026-05-08 14:13 | 47.11233 | 11.38967 | 18978 ft | 369 kts | 185° |
| 2026-05-08 14:13 | 47.08616 | 11.38735 | 19003 ft | 385 kts | 185° |
| 2026-05-08 14:13 | 47.05887 | 11.38477 | 19012 ft | 400 kts | 185° |
| 2026-05-08 14:13 | 47.03062 | 11.38201 | 19016 ft | 414 kts | 185° |
| 2026-05-08 14:14 | 47.00141 | 11.37915 | 19010 ft | 426 kts | 185° |
| 2026-05-08 14:14 | 46.97157 | 11.37618 | 19016 ft | 432 kts | 185° |
| 2026-05-08 14:14 | 46.94149 | 11.37295 | 18999 ft | 433 kts | 186° |
| 2026-05-08 14:14 | 46.91150 | 11.36963 | 19014 ft | 432 kts | 186° |
| 2026-05-08 14:15 | 46.88146 | 11.36630 | 19009 ft | 433 kts | 186° |
| 2026-05-08 14:15 | 46.85146 | 11.36301 | 19013 ft | 432 kts | 186° |
| 2026-05-08 14:15 | 46.82144 | 11.35974 | 19019 ft | 431 kts | 186° |
| 2026-05-08 14:15 | 46.79153 | 11.35649 | 19021 ft | 432 kts | 186° |
| 2026-05-08 14:16 | 46.76153 | 11.35326 | 19006 ft | 433 kts | 185° |
| 2026-05-08 14:16 | 46.73149 | 11.35009 | 19018 ft | 433 kts | 185° |
| 2026-05-08 14:16 | 46.70140 | 11.34692 | 19009 ft | 434 kts | 185° |
| 2026-05-08 14:16 | 46.67130 | 11.34376 | 18982 ft | 434 kts | 185° |
| 2026-05-08 14:17 | 46.64118 | 11.34061 | 18992 ft | 434 kts | 185° |
| 2026-05-08 14:17 | 46.61112 | 11.33745 | 18979 ft | 433 kts | 185° |
| 2026-05-08 14:17 | 46.58107 | 11.33428 | 18974 ft | 433 kts | 185° |
| 2026-05-08 14:17 | 46.55098 | 11.33112 | 18968 ft | 433 kts | 185° |
| 2026-05-08 14:18 | 46.52096 | 11.32795 | 18962 ft | 433 kts | 186° |
| 2026-05-08 14:18 | 46.49169 | 11.31897 | 18961 ft | 430 kts | 203° |
| 2026-05-08 14:18 | 46.46605 | 11.29713 | 18976 ft | 428 kts | 219° |
| 2026-05-08 14:18 | 46.44555 | 11.26685 | 18966 ft | 428 kts | 234° |
| 2026-05-08 14:19 | 46.43079 | 11.22947 | 18973 ft | 427 kts | 244° |
| 2026-05-08 14:19 | 46.41776 | 11.19072 | 18978 ft | 427 kts | 244° |
| 2026-05-08 14:19 | 46.40487 | 11.15180 | 19150 ft | 429 kts | 244° |
| 2026-05-08 14:19 | 46.39188 | 11.11294 | 19160 ft | 428 kts | 244° |
| 2026-05-08 14:20 | 46.37875 | 11.07423 | 19155 ft | 429 kts | 243° |
| 2026-05-08 14:20 | 46.36550 | 11.03561 | 19156 ft | 429 kts | 243° |
| 2026-05-08 14:20 | 46.35213 | 10.99693 | 19146 ft | 429 kts | 243° |
| 2026-05-08 14:20 | 46.33877 | 10.95839 | 19154 ft | 428 kts | 243° |
| 2026-05-08 14:21 | 46.32541 | 10.91987 | 19144 ft | 428 kts | 243° |
| 2026-05-08 14:21 | 46.31202 | 10.88135 | 19146 ft | 428 kts | 243° |
| 2026-05-08 14:21 | 46.29863 | 10.84288 | 19141 ft | 429 kts | 243° |
| 2026-05-08 14:21 | 46.28522 | 10.80437 | 19142 ft | 429 kts | 243° |
| 2026-05-08 14:22 | 46.27181 | 10.76590 | 19141 ft | 429 kts | 243° |
| 2026-05-08 14:22 | 46.25835 | 10.72734 | 19136 ft | 430 kts | 243° |
| 2026-05-08 14:22 | 46.24486 | 10.68872 | 19132 ft | 430 kts | 243° |
| 2026-05-08 14:22 | 46.23138 | 10.65021 | 19132 ft | 430 kts | 243° |
| 2026-05-08 14:23 | 46.21787 | 10.61164 | 19127 ft | 430 kts | 243° |
| 2026-05-08 14:23 | 46.20432 | 10.57301 | 19125 ft | 431 kts | 243° |
| 2026-05-08 14:23 | 46.19096 | 10.53498 | 19113 ft | 430 kts | 243° |
| 2026-05-08 14:23 | 46.17745 | 10.49654 | 19129 ft | 430 kts | 243° |
| 2026-05-08 14:24 | 46.16388 | 10.45802 | 19111 ft | 430 kts | 243° |
| 2026-05-08 14:24 | 46.15031 | 10.41960 | 19114 ft | 430 kts | 243° |
| 2026-05-08 14:24 | 46.13676 | 10.38124 | 19120 ft | 430 kts | 243° |
| 2026-05-08 14:24 | 46.12318 | 10.34284 | 19119 ft | 430 kts | 243° |
| 2026-05-08 14:25 | 46.10961 | 10.30451 | 19101 ft | 430 kts | 243° |
| 2026-05-08 14:25 | 46.09601 | 10.26616 | 19111 ft | 429 kts | 243° |
| 2026-05-08 14:25 | 46.08243 | 10.22786 | 19106 ft | 429 kts | 243° |
| 2026-05-08 14:25 | 46.06883 | 10.18957 | 19104 ft | 429 kts | 243° |
| 2026-05-08 14:26 | 46.05522 | 10.15131 | 19102 ft | 429 kts | 243° |
| 2026-05-08 14:26 | 46.04160 | 10.11312 | 19089 ft | 429 kts | 243° |
| 2026-05-08 14:26 | 46.03256 | 10.08776 | 19113 ft | 429 kts | 243° |
| 2026-05-08 14:26 | 46.01895 | 10.04957 | 19103 ft | 429 kts | 243° |
| 2026-05-08 14:27 | 46.00531 | 10.01131 | 19100 ft | 430 kts | 243° |
| 2026-05-08 14:27 | 45.99166 | 9.97307 | 19095 ft | 430 kts | 243° |
| 2026-05-08 14:27 | 45.97796 | 9.93476 | 19100 ft | 431 kts | 243° |
| 2026-05-08 14:27 | 45.96425 | 9.89645 | 19080 ft | 431 kts | 243° |
| 2026-05-08 14:28 | 45.95056 | 9.85822 | 19082 ft | 431 kts | 243° |
| 2026-05-08 14:28 | 45.93682 | 9.81993 | 19074 ft | 431 kts | 243° |
| 2026-05-08 14:28 | 45.92307 | 9.78167 | 19071 ft | 432 kts | 243° |
| 2026-05-08 14:28 | 45.90926 | 9.74333 | 19062 ft | 432 kts | 243° |
| 2026-05-08 14:29 | 45.89547 | 9.70506 | 19060 ft | 432 kts | 243° |
| 2026-05-08 14:29 | 45.88166 | 9.66679 | 19067 ft | 432 kts | 243° |
| 2026-05-08 14:29 | 45.86780 | 9.62847 | 19061 ft | 432 kts | 243° |
| 2026-05-08 14:29 | 45.85395 | 9.59018 | 19056 ft | 432 kts | 243° |
| 2026-05-08 14:30 | 45.84009 | 9.55195 | 19047 ft | 432 kts | 243° |
| 2026-05-08 14:30 | 45.82640 | 9.51425 | 19053 ft | 432 kts | 243° |
| 2026-05-08 14:30 | 45.81253 | 9.47609 | 19047 ft | 432 kts | 243° |
| 2026-05-08 14:30 | 45.79864 | 9.43794 | 19054 ft | 431 kts | 243° |
| 2026-05-08 14:31 | 45.78474 | 9.39981 | 19048 ft | 431 kts | 243° |
| 2026-05-08 14:31 | 45.77084 | 9.36172 | 19054 ft | 431 kts | 243° |
| 2026-05-08 14:31 | 45.75693 | 9.32365 | 19055 ft | 432 kts | 243° |
| 2026-05-08 14:32 | 45.72904 | 9.24753 | 19049 ft | 432 kts | 243° |
| 2026-05-08 14:32 | 45.71508 | 9.20948 | 19047 ft | 432 kts | 243° |
| 2026-05-08 14:32 | 45.70112 | 9.17148 | 19047 ft | 431 kts | 243° |
| 2026-05-08 14:32 | 45.68714 | 9.13348 | 19044 ft | 431 kts | 243° |
| 2026-05-08 14:33 | 45.67315 | 9.09552 | 19046 ft | 431 kts | 242° |
| 2026-05-08 14:33 | 45.65948 | 9.05737 | 19054 ft | 431 kts | 246° |
| 2026-05-08 14:33 | 45.64956 | 9.01700 | 19063 ft | 431 kts | 255° |
| 2026-05-08 14:33 | 45.64394 | 8.97494 | 19074 ft | 431 kts | 264° |
| 2026-05-08 14:34 | 45.64246 | 8.93211 | 19074 ft | 432 kts | 268° |
| 2026-05-08 14:34 | 45.64162 | 8.88917 | 19066 ft | 432 kts | 268° |
| 2026-05-08 14:34 | 45.64077 | 8.84631 | 19073 ft | 432 kts | 268° |
| 2026-05-08 14:34 | 45.63979 | 8.80338 | 19075 ft | 432 kts | 268° |
| 2026-05-08 14:35 | 45.63869 | 8.76048 | 19077 ft | 432 kts | 268° |
| 2026-05-08 14:35 | 45.63749 | 8.71767 | 19076 ft | 432 kts | 267° |
| 2026-05-08 14:35 | 45.63623 | 8.67481 | 19080 ft | 432 kts | 267° |
| 2026-05-08 14:35 | 45.63495 | 8.63194 | 19077 ft | 432 kts | 267° |
| 2026-05-08 14:36 | 45.63367 | 8.58965 | 19075 ft | 432 kts | 267° |
| 2026-05-08 14:36 | 45.63236 | 8.54632 | 19076 ft | 432 kts | 267° |
| 2026-05-08 14:36 | 45.63106 | 8.50402 | 19072 ft | 431 kts | 267° |
| 2026-05-08 14:36 | 45.62840 | 8.46143 | 19055 ft | 431 kts | 257° |
| 2026-05-08 14:37 | 45.61729 | 8.42180 | 19076 ft | 431 kts | 239° |
| 2026-05-08 14:37 | 45.59877 | 8.38816 | 19072 ft | 432 kts | 225° |
| 2026-05-08 14:37 | 45.57452 | 8.36285 | 19080 ft | 432 kts | 210° |
| 2026-05-08 14:37 | 45.54849 | 8.34258 | 19063 ft | 422 kts | 209° |
| 2026-05-08 14:38 | 45.52273 | 8.32306 | 19063 ft | 418 kts | 209° |
| 2026-05-08 14:38 | 45.49702 | 8.30355 | 19069 ft | 419 kts | 209° |
| 2026-05-08 14:38 | 45.47130 | 8.28382 | 18962 ft | 420 kts | 209° |
| 2026-05-08 14:38 | 45.44562 | 8.26392 | 18454 ft | 417 kts | 209° |
| 2026-05-08 14:39 | 45.42027 | 8.24416 | 17793 ft | 413 kts | 209° |
| 2026-05-08 14:39 | 45.39561 | 8.22488 | 17633 ft | 396 kts | 210° |
| 2026-05-08 14:39 | 45.37183 | 8.20630 | 17460 ft | 382 kts | 210° |
| 2026-05-08 14:39 | 45.34895 | 8.18843 | 17304 ft | 369 kts | 210° |
| 2026-05-08 14:40 | 45.32687 | 8.17120 | 17164 ft | 356 kts | 210° |
| 2026-05-08 14:40 | 45.30573 | 8.15473 | 17019 ft | 345 kts | 210° |
| 2026-05-08 14:40 | 45.28497 | 8.13859 | 16884 ft | 335 kts | 210° |
| 2026-05-08 14:40 | 45.26519 | 8.12221 | 16738 ft | 324 kts | 219° |
| 2026-05-08 14:41 | 45.25052 | 8.09892 | 16581 ft | 313 kts | 239° |
| 2026-05-08 14:41 | 45.24245 | 8.07044 | 16224 ft | 311 kts | 258° |
| 2026-05-08 14:41 | 45.23858 | 8.04046 | 15911 ft | 308 kts | 261° |
| 2026-05-08 14:41 | 45.23531 | 8.01044 | 15580 ft | 307 kts | 261° |
| 2026-05-08 14:42 | 45.23209 | 7.98059 | 15254 ft | 305 kts | 261° |
| 2026-05-08 14:42 | 45.22877 | 7.95088 | 14931 ft | 304 kts | 261° |
| 2026-05-08 14:42 | 45.22537 | 7.92138 | 14615 ft | 303 kts | 261° |
| 2026-05-08 14:42 | 45.22191 | 7.89195 | 14297 ft | 301 kts | 260° |
| 2026-05-08 14:43 | 45.21844 | 7.86272 | 13975 ft | 300 kts | 260° |
| 2026-05-08 14:43 | 45.21407 | 7.83388 | 13615 ft | 299 kts | 248° |
| 2026-05-08 14:43 | 45.20273 | 7.80945 | 13279 ft | 298 kts | 223° |
| 2026-05-08 14:43 | 45.18541 | 7.79381 | 12968 ft | 296 kts | 201° |
| 2026-05-08 14:44 | 45.16530 | 7.78825 | 12658 ft | 295 kts | 184° |
| 2026-05-08 14:44 | 45.14491 | 7.78701 | 12427 ft | 290 kts | 183° |
| 2026-05-08 14:44 | 45.12496 | 7.78597 | 12305 ft | 285 kts | 183° |
| 2026-05-08 14:44 | 45.10535 | 7.78483 | 12195 ft | 278 kts | 183° |
| 2026-05-08 14:45 | 45.08624 | 7.78363 | 12013 ft | 273 kts | 183° |
| 2026-05-08 14:45 | 45.06733 | 7.78243 | 11742 ft | 271 kts | 183° |
| 2026-05-08 14:45 | 45.04853 | 7.78122 | 11475 ft | 269 kts | 183° |
| 2026-05-08 14:45 | 45.02984 | 7.78000 | 11205 ft | 268 kts | 183° |
| 2026-05-08 14:46 | 45.01128 | 7.77879 | 10938 ft | 267 kts | 183° |
| 2026-05-08 14:46 | 44.99271 | 7.77757 | 10666 ft | 266 kts | 183° |
| 2026-05-08 14:46 | 44.97426 | 7.77637 | 10400 ft | 265 kts | 182° |
| 2026-05-08 14:46 | 44.95583 | 7.77516 | 10126 ft | 265 kts | 182° |
| 2026-05-08 14:47 | 44.93747 | 7.77395 | 9840 ft | 264 kts | 182° |
| 2026-05-08 14:47 | 44.91914 | 7.77274 | 9547 ft | 263 kts | 182° |
| 2026-05-08 14:47 | 44.90091 | 7.77153 | 9267 ft | 262 kts | 182° |
| 2026-05-08 14:47 | 44.88296 | 7.77035 | 9006 ft | 260 kts | 182° |
| 2026-05-08 14:48 | 44.86489 | 7.76917 | 8769 ft | 259 kts | 182° |
| 2026-05-08 14:48 | 44.84695 | 7.76799 | 8529 ft | 257 kts | 182° |
| 2026-05-08 14:48 | 44.82931 | 7.76526 | 8268 ft | 255 kts | 198° |
| 2026-05-08 14:48 | 44.81459 | 7.75210 | 8046 ft | 252 kts | 229° |
| 2026-05-08 14:49 | 44.80652 | 7.73066 | 7824 ft | 249 kts | 257° |
| 2026-05-08 14:49 | 44.80509 | 7.70657 | 7591 ft | 247 kts | 271° |
| 2026-05-08 14:49 | 44.80594 | 7.68236 | 7317 ft | 247 kts | 274° |
| 2026-05-08 14:49 | 44.80820 | 7.65851 | 7065 ft | 246 kts | 290° |
| 2026-05-08 14:50 | 44.81750 | 7.63876 | 6843 ft | 242 kts | 321° |
| 2026-05-08 14:50 | 44.83220 | 7.62804 | 6652 ft | 238 kts | 348° |
| 2026-05-08 14:50 | 44.84856 | 7.62638 | 6453 ft | 235 kts | 2° |
| 2026-05-08 14:50 | 44.86489 | 7.62749 | 6229 ft | 235 kts | 4° |
| 2026-05-08 14:51 | 44.88102 | 7.62883 | 5997 ft | 235 kts | 4° |
| 2026-05-08 14:51 | 44.89729 | 7.63013 | 5774 ft | 234 kts | 4° |
| 2026-05-08 14:51 | 44.91350 | 7.63129 | 5566 ft | 232 kts | 3° |
| 2026-05-08 14:51 | 44.92957 | 7.63237 | 5349 ft | 231 kts | 3° |
| 2026-05-08 14:52 | 44.94553 | 7.63339 | 5130 ft | 228 kts | 3° |
| 2026-05-08 14:52 | 44.97678 | 7.63536 | 4751 ft | 217 kts | 3° |
| 2026-05-08 14:52 | 44.99149 | 7.63629 | 4521 ft | 206 kts | 3° |
| 2026-05-08 14:53 | 45.00548 | 7.63718 | 4326 ft | 198 kts | 3° |
| 2026-05-08 14:53 | 45.01905 | 7.63805 | 4176 ft | 193 kts | 3° |
| 2026-05-08 14:53 | 45.03227 | 7.63889 | 4081 ft | 189 kts | 2° |
| 2026-05-08 14:53 | 45.04537 | 7.63973 | 3833 ft | 186 kts | 2° |
| 2026-05-08 14:54 | 45.05801 | 7.64053 | 3599 ft | 182 kts | 2° |
| 2026-05-08 14:54 | 45.07049 | 7.64133 | 3357 ft | 178 kts | 2° |
| 2026-05-08 14:54 | 45.08270 | 7.64210 | 3124 ft | 172 kts | 2° |
| 2026-05-08 14:54 | 45.09417 | 7.64283 | 2928 ft | 158 kts | 3° |
| 2026-05-08 14:55 | 45.10486 | 7.64351 | 2702 ft | 150 kts | 2° |
| 2026-05-08 14:55 | 45.11521 | 7.64418 | 2505 ft | 149 kts | 3° |
| 2026-05-08 14:55 | 45.12562 | 7.64485 | 2289 ft | 150 kts | 2° |
| 2026-05-08 14:55 | 45.13604 | 7.64551 | 2070 ft | 150 kts | 2° |
| 2026-05-08 14:56 | 45.14640 | 7.64617 | 1823 ft | 148 kts | 2° |
| 2026-05-08 14:56 | 45.15671 | 7.64683 | 1623 ft | 149 kts | 1° |
| 2026-05-08 14:56 | 45.16708 | 7.64748 | 1424 ft | 149 kts | 1° |
| 2026-05-08 14:56 | 45.17744 | 7.64821 | 1204 ft | 150 kts | 2° |
| 2026-05-08 14:57 | 45.18770 | 7.64888 | 1035 ft | 146 kts | 2° |
| 2026-05-08 14:57 | 45.19769 | 7.64949 | 959 ft | 131 kts | 1° |
| 2026-05-08 14:57 | 45.20289 | 7.64979 | 977 ft | 26 kts | 2° |
| 2026-05-08 14:57 | 45.20470 | 7.64990 | 983 ft | 25 kts | 2° |
| 2026-05-08 14:58 | 45.20636 | 7.65000 | 987 ft | 22 kts | 2° |
| 2026-05-08 14:58 | 45.20768 | 7.65007 | 988 ft | 11 kts | 358° |
| 2026-05-08 14:58 | 45.20828 | 7.64989 | 990 ft | 9 kts | 335° |
| 2026-05-08 14:58 | 45.20867 | 7.64923 | 995 ft | 9 kts | 294° |
| 2026-05-08 14:59 | 45.20875 | 7.64841 | 990 ft | 8 kts | 263° |
| 2026-05-08 14:59 | 45.20781 | 7.64742 | 989 ft | 9 kts | 184° |
| 2026-05-08 14:59 | 45.20717 | 7.64737 | 989 ft | 9 kts | 182° |
| 2026-05-08 15:00 | 45.20648 | 7.64733 | 995 ft | 11 kts | 182° |
| 2026-05-08 15:00 | 45.20561 | 7.64727 | 986 ft | 14 kts | 182° |
| 2026-05-08 15:00 | 45.20454 | 7.64721 | 984 ft | 17 kts | 182° |
| 2026-05-08 15:00 | 45.20329 | 7.64713 | 982 ft | 20 kts | 182° |
| 2026-05-08 15:01 | 45.20191 | 7.64704 | 971 ft | 20 kts | 182° |
| 2026-05-08 15:01 | 45.20062 | 7.64696 | 965 ft | 14 kts | 182° |
| 2026-05-08 15:01 | 45.19957 | 7.64689 | 963 ft | 17 kts | 182° |
| 2026-05-08 15:01 | 45.19845 | 7.64682 | 959 ft | 12 kts | 182° |
| 2026-05-08 15:02 | 45.19764 | 7.64693 | 959 ft | 10 kts | 170° |
| 2026-05-08 15:02 | 45.19697 | 7.64697 | 960 ft | 10 kts | 182° |
| 2026-05-08 15:02 | 45.19631 | 7.64692 | 960 ft | 10 kts | 182° |
| 2026-05-08 15:02 | 45.19550 | 7.64687 | 954 ft | 13 kts | 182° |
| 2026-05-08 15:03 | 45.19460 | 7.64682 | 957 ft | 9 kts | 182° |
| 2026-05-08 15:03 | 45.19395 | 7.64678 | 958 ft | 9 kts | 182° |
| 2026-05-08 15:03 | 45.19335 | 7.64674 | 958 ft | 7 kts | 183° |
| 2026-05-08 15:03 | 45.19290 | 7.64656 | 957 ft | 7 kts | 233° |
| 2026-05-08 15:04 | 45.19282 | 7.64594 | 956 ft | 7 kts | 257° |
| 2026-05-08 15:04 | 45.19272 | 7.64528 | 954 ft | 3 kts | 258° |
| 2026-05-08 15:04 | 45.19272 | 7.64525 | 952 ft | 0 kts | 258° |